Time,TemperatureF,DewpointF,PressureIn,WindDirection,WindDirectionDegrees,WindSpeedMPH,WindSpeedGustMPH,Humidity,HourlyPrecipIn,Conditions,Clouds,dailyrainin,SoftwareType,DateUTC
2013-04-27 00:01:00,55.2,36.4,30.40,NNW,338,0.0,0.0,49,0.00,CLR,,0.00,WeatherDisplay:10.37,2013-04-27 04:01:00,
2013-04-27 00:02:00,55.2,36.4,30.40,NNW,338,0.0,0.0,49,0.00,CLR,,0.00,WeatherDisplay:10.37,2013-04-27 04:02:00,
2013-04-27 00:03:00,55.2,36.4,30.40,NNW,338,0.0,0.0,49,0.00,CLR,,0.00,WeatherDisplay:10.37,2013-04-27 04:03:00,
2013-04-27 00:08:00,55.2,36.4,30.40,NNW,338,0.0,0.0,49,0.00,CLR,,0.00,WeatherDisplay:10.37,2013-04-27 04:08:00,
2013-04-27 00:09:00,55.2,36.4,30.40,NNW,338,0.0,0.0,49,0.00,CLR,,0.00,WeatherDisplay:10.37,2013-04-27 04:09:00,
2013-04-27 00:12:00,55.2,36.4,30.40,NNW,338,0.0,0.0,49,0.00,CLR,,0.00,WeatherDisplay:10.37,2013-04-27 04:12:00,
2013-04-27 00:17:00,55.2,36.4,30.40,NNW,338,0.0,0.0,49,0.00,CLR,,0.00,WeatherDisplay:10.37,2013-04-27 04:17:00,
2013-04-27 00:22:00,55.2,36.4,30.40,NNW,338,0.0,0.0,49,0.00,CLR,,0.00,WeatherDisplay:10.37,2013-04-27 04:22:00,
2013-04-27 00:27:00,55.2,36.4,30.40,NNW,338,0.0,0.0,49,0.00,CLR,,0.00,WeatherDisplay:10.37,2013-04-27 04:27:00,
2013-04-27 00:32:00,55.2,36.4,30.40,NNW,338,0.0,0.0,49,0.00,CLR,,0.00,WeatherDisplay:10.37,2013-04-27 04:32:00,
2013-04-27 00:37:00,55.2,36.4,30.40,NNW,338,0.0,0.0,49,0.00,CLR,,0.00,WeatherDisplay:10.37,2013-04-27 04:37:00,
2013-04-27 00:42:00,55.2,36.4,30.40,NNW,338,0.0,0.0,49,0.00,CLR,,0.00,WeatherDisplay:10.37,2013-04-27 04:42:00,
2013-04-27 00:47:00,55.2,36.4,30.40,NNW,338,0.0,0.0,49,0.00,CLR,,0.00,WeatherDisplay:10.37,2013-04-27 04:47:00,
2013-04-27 00:52:00,55.2,36.4,30.40,NNW,338,0.0,0.0,49,0.00,CLR,,0.00,WeatherDisplay:10.37,2013-04-27 04:52:00,
2013-04-27 00:57:00,55.2,36.4,30.40,NNW,338,0.0,0.0,49,0.00,CLR,,0.00,WeatherDisplay:10.37,2013-04-27 04:57:00,
2013-04-27 01:02:00,55.2,36.4,30.40,NNW,338,0.0,0.0,49,0.00,CLR,,0.00,WeatherDisplay:10.37,2013-04-27 05:02:00,
2013-04-27 01:07:00,55.2,36.4,30.40,NNW,338,0.0,0.0,49,0.00,CLR,,0.00,WeatherDisplay:10.37,2013-04-27 05:07:00,
2013-04-27 01:12:00,55.2,36.4,30.40,NNW,338,0.0,0.0,49,0.00,CLR,,0.00,WeatherDisplay:10.37,2013-04-27 05:12:00,
2013-04-27 01:17:00,55.2,36.4,30.40,NNW,338,0.0,0.0,49,0.00,CLR,,0.00,WeatherDisplay:10.37,2013-04-27 05:17:00,
2013-04-27 01:22:00,55.2,36.4,30.40,NNW,338,0.0,0.0,49,0.00,CLR,,0.00,WeatherDisplay:10.37,2013-04-27 05:22:00,
2013-04-27 01:27:00,55.2,36.4,30.40,NNW,338,0.0,0.0,49,0.00,CLR,,0.00,WeatherDisplay:10.37,2013-04-27 05:27:00,
2013-04-27 01:32:00,55.2,36.4,30.40,NNW,338,0.0,0.0,49,0.00,CLR,,0.00,WeatherDisplay:10.37,2013-04-27 05:32:00,
2013-04-27 01:37:00,55.2,36.4,30.40,NNW,338,0.0,0.0,49,0.00,CLR,,0.00,WeatherDisplay:10.37,2013-04-27 05:37:00,
2013-04-27 01:42:00,55.2,36.4,30.40,NNW,338,0.0,0.0,49,0.00,CLR,,0.00,WeatherDisplay:10.37,2013-04-27 05:42:00,
2013-04-27 01:47:00,55.2,36.4,30.40,NNW,338,0.0,0.0,49,0.00,CLR,,0.00,WeatherDisplay:10.37,2013-04-27 05:47:00,
2013-04-27 01:52:00,55.2,36.4,30.40,NNW,338,0.0,0.0,49,0.00,CLR,,0.00,WeatherDisplay:10.37,2013-04-27 05:52:00,
2013-04-27 01:57:00,55.2,36.4,30.39,NNW,338,0.0,0.0,49,0.00,CLR,,0.00,WeatherDisplay:10.37,2013-04-27 05:57:00,
2013-04-27 02:02:00,55.2,36.4,30.39,NNW,338,0.0,0.0,49,0.00,CLR,,0.00,WeatherDisplay:10.37,2013-04-27 06:02:00,
2013-04-27 02:07:00,55.2,36.4,30.39,NNW,338,0.0,0.0,49,0.00,CLR,,0.00,WeatherDisplay:10.37,2013-04-27 06:07:00,
2013-04-27 02:12:00,55.2,36.4,30.39,NNW,338,0.0,0.0,49,0.00,CLR,,0.00,WeatherDisplay:10.37,2013-04-27 06:12:00,
2013-04-27 02:17:00,55.2,36.4,30.39,NNW,338,0.0,0.0,49,0.00,CLR,,0.00,WeatherDisplay:10.37,2013-04-27 06:17:00,
2013-04-27 02:22:00,55.2,36.4,30.39,NNW,338,0.0,0.0,49,0.00,CLR,,0.00,WeatherDisplay:10.37,2013-04-27 06:22:00,
2013-04-27 02:27:00,55.2,36.4,30.39,NNW,338,0.0,0.0,49,0.00,CLR,,0.00,WeatherDisplay:10.37,2013-04-27 06:27:00,
2013-04-27 02:32:00,55.2,36.4,30.39,NNW,338,0.0,0.0,49,0.00,CLR,,0.00,WeatherDisplay:10.37,2013-04-27 06:32:00,
2013-04-27 02:37:00,55.2,36.4,30.38,NNW,338,0.0,0.0,49,0.00,CLR,,0.00,WeatherDisplay:10.37,2013-04-27 06:37:00,
2013-04-27 02:42:00,55.2,49.5,30.38,NNW,338,0.0,0.0,81,0.00,CLR,,0.00,WeatherDisplay:10.37,2013-04-27 06:42:00,
2013-04-27 02:47:00,55.2,49.5,30.38,NNW,338,0.0,0.0,81,0.00,CLR,,0.00,WeatherDisplay:10.37,2013-04-27 06:47:00,
2013-04-27 02:52:00,34.3,29.1,30.38,NNW,338,0.0,0.0,81,0.00,CLR,,0.00,WeatherDisplay:10.37,2013-04-27 06:52:00,
2013-04-27 02:57:00,34.2,28.9,30.38,NNW,338,0.0,0.0,81,0.00,CLR,,0.00,WeatherDisplay:10.37,2013-04-27 06:57:00,
2013-04-27 03:02:00,34.0,28.8,30.38,NNW,338,0.0,0.0,81,0.00,CLR,,0.00,WeatherDisplay:10.37,2013-04-27 07:02:00,
2013-04-27 03:07:00,34.0,28.8,30.38,NNW,338,0.0,0.0,81,0.00,CLR,,0.00,WeatherDisplay:10.37,2013-04-27 07:07:00,
2013-04-27 03:12:00,34.0,28.8,30.38,NNW,338,0.0,0.0,81,0.00,CLR,,0.00,WeatherDisplay:10.37,2013-04-27 07:12:00,
2013-04-27 03:17:00,33.8,28.9,30.38,NNW,338,0.0,0.0,82,0.00,CLR,,0.00,WeatherDisplay:10.37,2013-04-27 07:17:00,
2013-04-27 03:22:00,33.6,28.7,30.38,NNW,338,0.0,0.0,82,0.00,CLR,,0.00,WeatherDisplay:10.37,2013-04-27 07:22:00,
2013-04-27 03:27:00,33.6,28.7,30.38,NNW,338,0.0,0.0,82,0.00,CLR,,0.00,WeatherDisplay:10.37,2013-04-27 07:27:00,
2013-04-27 03:32:00,33.4,28.5,30.38,NNW,338,0.0,0.0,82,0.00,CLR,,0.00,WeatherDisplay:10.37,2013-04-27 07:32:00,
2013-04-27 03:37:00,33.4,28.5,30.38,NNW,338,0.0,0.0,82,0.00,CLR,,0.00,WeatherDisplay:10.37,2013-04-27 07:37:00,
2013-04-27 03:42:00,33.4,28.5,30.38,NNW,338,0.0,0.0,82,0.00,CLR,,0.00,WeatherDisplay:10.37,2013-04-27 07:42:00,
2013-04-27 03:47:00,33.3,28.4,30.38,NNW,338,0.0,0.0,82,0.00,CLR,,0.00,WeatherDisplay:10.37,2013-04-27 07:47:00,
2013-04-27 03:52:00,33.3,28.4,30.38,NNW,338,0.0,0.0,82,0.00,CLR,,0.00,WeatherDisplay:10.37,2013-04-27 07:52:00,
2013-04-27 03:57:00,33.1,28.2,30.37,NNW,338,0.0,0.0,82,0.00,CLR,,0.00,WeatherDisplay:10.37,2013-04-27 07:57:00,
2013-04-27 04:02:00,33.3,28.4,30.37,NNW,338,0.0,0.0,82,0.00,CLR,,0.00,WeatherDisplay:10.37,2013-04-27 08:02:00,
2013-04-27 04:07:00,33.1,28.2,30.37,NNW,338,0.0,0.0,82,0.00,CLR,,0.00,WeatherDisplay:10.37,2013-04-27 08:07:00,
2013-04-27 04:12:00,32.9,28.0,30.37,NNW,338,0.0,0.0,82,0.00,CLR,,0.00,WeatherDisplay:10.37,2013-04-27 08:12:00,
2013-04-27 04:17:00,32.7,27.8,30.38,NNW,338,0.0,0.0,82,0.00,CLR,,0.00,WeatherDisplay:10.37,2013-04-27 08:17:00,
2013-04-27 04:22:00,32.7,28.1,30.38,NNW,338,0.0,0.0,83,0.00,CLR,,0.00,WeatherDisplay:10.37,2013-04-27 08:22:00,
2013-04-27 04:27:00,32.5,28.0,30.38,NNW,338,0.0,0.0,83,0.00,CLR,,0.00,WeatherDisplay:10.37,2013-04-27 08:27:00,
2013-04-27 04:32:00,32.5,28.0,30.38,NNW,338,0.0,0.0,83,0.00,CLR,,0.00,WeatherDisplay:10.37,2013-04-27 08:32:00,
2013-04-27 04:37:00,32.5,28.0,30.37,NNW,338,0.0,0.0,83,0.00,CLR,,0.00,WeatherDisplay:10.37,2013-04-27 08:37:00,
2013-04-27 04:42:00,32.5,28.0,30.37,NNW,338,0.0,0.0,83,0.00,CLR,,0.00,WeatherDisplay:10.37,2013-04-27 08:42:00,
2013-04-27 04:47:00,32.5,28.0,30.37,NNW,338,0.0,0.0,83,0.00,CLR,,0.00,WeatherDisplay:10.37,2013-04-27 08:47:00,
2013-04-27 04:52:00,32.5,28.0,30.37,NNW,338,0.0,0.0,83,0.00,CLR,,0.00,WeatherDisplay:10.37,2013-04-27 08:52:00,
2013-04-27 04:57:00,32.2,27.6,30.36,NNW,338,0.0,0.0,83,0.00,CLR,,0.00,WeatherDisplay:10.37,2013-04-27 08:57:00,
2013-04-27 05:02:00,32.2,27.6,30.36,NNW,338,0.0,0.0,83,0.00,CLR,,0.00,WeatherDisplay:10.37,2013-04-27 09:02:00,
2013-04-27 05:07:00,32.0,27.4,30.36,NNW,338,0.0,0.0,83,0.00,CLR,,0.00,WeatherDisplay:10.37,2013-04-27 09:07:00,
2013-04-27 05:12:00,31.8,27.2,30.36,NNW,338,0.0,0.0,83,0.00,CLR,,0.00,WeatherDisplay:10.37,2013-04-27 09:12:00,
2013-04-27 05:17:00,31.8,27.2,30.36,NNW,338,0.0,0.0,83,0.00,CLR,,0.00,WeatherDisplay:10.37,2013-04-27 09:17:00,
2013-04-27 05:22:00,31.8,27.2,30.36,NNW,338,0.0,0.0,83,0.00,CLR,,0.00,WeatherDisplay:10.37,2013-04-27 09:22:00,
2013-04-27 05:27:00,31.8,27.5,30.36,NNW,338,0.0,0.0,84,0.00,CLR,,0.00,WeatherDisplay:10.37,2013-04-27 09:27:00,
2013-04-27 05:32:00,31.8,27.5,30.36,NNW,338,0.0,0.0,84,0.00,CLR,,0.00,WeatherDisplay:10.37,2013-04-27 09:32:00,
2013-04-27 05:37:00,31.8,27.5,30.37,NNW,338,0.0,0.0,84,0.00,CLR,,0.00,WeatherDisplay:10.37,2013-04-27 09:37:00,
2013-04-27 05:42:00,31.6,27.4,30.37,NNW,338,0.0,1.1,84,0.00,CLR,,0.00,WeatherDisplay:10.37,2013-04-27 09:42:00,
2013-04-27 05:47:00,31.8,27.5,30.37,NNW,338,0.0,0.0,84,0.00,CLR,,0.00,WeatherDisplay:10.37,2013-04-27 09:47:00,
2013-04-27 05:52:00,31.8,27.5,30.37,NNW,338,0.0,0.0,84,0.00,CLR,,0.00,WeatherDisplay:10.37,2013-04-27 09:52:00,
2013-04-27 05:57:00,31.8,27.5,30.38,NNW,338,0.0,0.0,84,0.00,CLR,,0.00,WeatherDisplay:10.37,2013-04-27 09:57:00,
2013-04-27 06:02:00,31.8,27.5,30.38,NNW,338,0.0,0.0,84,0.00,CLR,,0.00,WeatherDisplay:10.37,2013-04-27 10:02:00,
2013-04-27 06:07:00,31.8,27.5,30.38,NNW,338,0.0,0.0,84,0.00,CLR,,0.00,WeatherDisplay:10.37,2013-04-27 10:07:00,
2013-04-27 06:12:00,31.8,27.5,30.38,NNW,338,0.0,0.0,84,0.00,CLR,,0.00,WeatherDisplay:10.37,2013-04-27 10:12:00,
2013-04-27 06:17:00,31.8,27.5,30.37,NNW,338,0.0,0.0,84,0.00,CLR,,0.00,WeatherDisplay:10.37,2013-04-27 10:17:00,
2013-04-27 06:22:00,31.8,27.5,30.37,NNW,338,0.0,0.0,84,0.00,CLR,,0.00,WeatherDisplay:10.37,2013-04-27 10:22:00,
2013-04-27 06:27:00,31.8,27.5,30.37,NNW,338,0.0,0.0,84,0.00,CLR,,0.00,WeatherDisplay:10.37,2013-04-27 10:27:00,
2013-04-27 06:32:00,32.2,28.2,30.37,NNW,338,0.0,0.0,85,0.00,CLR,,0.00,WeatherDisplay:10.37,2013-04-27 10:32:00,
2013-04-27 06:37:00,32.2,28.2,30.38,NNW,338,0.0,0.0,85,0.00,CLR,,0.00,WeatherDisplay:10.37,2013-04-27 10:37:00,
2013-04-27 06:42:00,32.5,28.5,30.38,NNW,338,0.0,0.0,85,0.00,CLR,,0.00,WeatherDisplay:10.37,2013-04-27 10:42:00,
2013-04-27 06:47:00,32.9,28.9,30.38,NNW,338,0.0,0.0,85,0.00,CLR,,0.00,WeatherDisplay:10.37,2013-04-27 10:47:00,
2013-04-27 06:52:00,33.3,29.2,30.38,NNW,338,0.0,0.0,85,0.00,CLR,,0.00,WeatherDisplay:10.37,2013-04-27 10:52:00,
2013-04-27 06:57:00,33.6,29.6,30.41,NNW,338,0.0,0.0,85,0.00,CLR,,0.00,WeatherDisplay:10.37,2013-04-27 10:57:00,
2013-04-27 07:02:00,33.8,29.8,30.41,NNW,338,0.0,0.0,85,0.00,CLR,,0.00,WeatherDisplay:10.37,2013-04-27 11:02:00,
2013-04-27 07:07:00,33.8,29.8,30.41,NNW,338,0.0,0.0,85,0.00,CLR,,0.00,WeatherDisplay:10.37,2013-04-27 11:07:00,
2013-04-27 07:12:00,33.8,29.8,30.41,NNW,338,0.0,0.0,85,0.00,CLR,,0.00,WeatherDisplay:10.37,2013-04-27 11:12:00,
2013-04-27 07:17:00,33.8,29.8,30.41,NNW,338,0.0,0.0,85,0.00,CLR,,0.00,WeatherDisplay:10.37,2013-04-27 11:17:00,
2013-04-27 07:22:00,33.8,29.8,30.41,NNW,338,0.0,0.0,85,0.00,CLR,,0.00,WeatherDisplay:10.37,2013-04-27 11:22:00,
2013-04-27 07:27:00,33.8,29.8,30.41,NNW,338,0.0,0.0,85,0.00,CLR,,0.00,WeatherDisplay:10.37,2013-04-27 11:27:00,
2013-04-27 07:32:00,36.3,32.2,30.41,NNW,338,0.0,0.0,85,0.00,CLR,,0.00,WeatherDisplay:10.37,2013-04-27 11:32:00,
2013-04-27 07:37:00,37.6,33.5,30.43,ENE,68,0.0,0.0,85,0.00,CLR,,0.00,WeatherDisplay:10.37,2013-04-27 11:37:00,
2013-04-27 07:42:00,39.0,34.6,30.43,ENE,68,0.0,0.0,84,0.00,CLR,,0.00,WeatherDisplay:10.37,2013-04-27 11:42:00,
2013-04-27 07:47:00,39.0,34.6,30.43,NE,45,0.0,0.0,84,0.00,CLR,,0.00,WeatherDisplay:10.37,2013-04-27 11:47:00,
2013-04-27 07:52:00,39.0,34.6,30.43,NE,45,0.0,1.1,84,0.00,CLR,,0.00,WeatherDisplay:10.37,2013-04-27 11:52:00,
2013-04-27 07:57:00,39.0,34.6,30.45,NE,45,0.7,2.3,84,0.00,CLR,,0.00,WeatherDisplay:10.37,2013-04-27 11:57:00,
2013-04-27 08:02:00,39.0,34.6,30.45,ENE,68,1.1,2.3,84,0.00,CLR,,0.00,WeatherDisplay:10.37,2013-04-27 12:02:00,
2013-04-27 08:07:00,39.0,34.6,30.45,NNW,338,0.7,1.1,84,0.00,CLR,,0.00,WeatherDisplay:10.37,2013-04-27 12:07:00,
2013-04-27 08:12:00,39.0,34.6,30.45,NE,45,0.3,2.3,84,0.00,CLR,,0.00,WeatherDisplay:10.37,2013-04-27 12:12:00,
2013-04-27 08:17:00,39.0,34.6,30.45,ENE,68,1.0,2.3,84,0.00,CLR,,0.00,WeatherDisplay:10.37,2013-04-27 12:17:00,
2013-04-27 08:22:00,39.0,34.6,30.45,NNE,22,1.6,2.3,84,0.00,CLR,,0.00,WeatherDisplay:10.37,2013-04-27 12:22:00,
2013-04-27 08:27:00,39.0,34.6,30.45,SSW,202,2.0,2.3,84,0.00,CLR,,0.00,WeatherDisplay:10.37,2013-04-27 12:27:00,
2013-04-27 08:32:00,39.0,34.6,30.45,ENE,68,2.0,3.5,84,0.00,CLR,,0.00,WeatherDisplay:10.37,2013-04-27 12:32:00,
2013-04-27 08:37:00,39.0,34.6,30.45,NE,45,2.0,2.0,84,0.00,CLR,,0.00,WeatherDisplay:10.37,2013-04-27 12:37:00,
2013-04-27 08:42:00,39.0,34.6,30.46,ENE,68,1.5,1.5,84,0.00,CLR,,0.00,WeatherDisplay:10.37,2013-04-27 12:42:00,
2013-04-27 08:47:00,39.0,34.6,30.46,SE,135,1.6,3.5,84,0.00,CLR,,0.00,WeatherDisplay:10.37,2013-04-27 12:47:00,
2013-04-27 08:52:00,39.0,34.6,30.46,SE,135,1.6,3.5,84,0.00,CLR,,0.00,WeatherDisplay:10.37,2013-04-27 12:52:00,
2013-04-27 08:57:00,39.0,34.6,30.46,SE,135,1.6,3.5,84,0.00,CLR,,0.00,WeatherDisplay:10.37,2013-04-27 12:57:00,
2013-04-27 09:02:00,39.0,34.6,30.46,SE,135,1.6,3.5,84,0.00,CLR,,0.00,WeatherDisplay:10.37,2013-04-27 13:02:00,
2013-04-27 09:07:00,39.0,34.6,30.46,SE,135,1.6,3.5,84,0.00,CLR,,0.00,WeatherDisplay:10.37,2013-04-27 13:07:00,
2013-04-27 09:12:00,39.0,34.6,30.46,SE,135,1.6,3.5,84,0.00,CLR,,0.00,WeatherDisplay:10.37,2013-04-27 13:12:00,
2013-04-27 09:17:00,39.0,34.6,30.46,SE,135,1.6,3.5,84,0.00,CLR,,0.00,WeatherDisplay:10.37,2013-04-27 13:17:00,
2013-04-27 09:22:00,39.0,34.6,30.46,SE,135,1.6,3.5,84,0.00,CLR,,0.00,WeatherDisplay:10.37,2013-04-27 13:22:00,
2013-04-27 09:27:00,39.0,34.6,30.46,SE,135,1.6,3.5,84,0.00,CLR,,0.00,WeatherDisplay:10.37,2013-04-27 13:27:00,
2013-04-27 09:32:00,39.0,34.6,30.46,SE,135,1.6,3.5,84,0.00,CLR,,0.00,WeatherDisplay:10.37,2013-04-27 13:32:00,
2013-04-27 09:37:00,39.0,34.6,30.46,SE,135,1.6,3.5,84,0.00,CLR,,0.00,WeatherDisplay:10.37,2013-04-27 13:37:00,
2013-04-27 09:42:00,39.0,34.6,30.46,SE,135,1.6,3.5,84,0.00,CLR,,0.00,WeatherDisplay:10.37,2013-04-27 13:42:00,
2013-04-27 09:49:00,39.0,34.6,30.46,SE,135,1.6,3.5,84,0.00,CLR,,0.00,WeatherDisplay:10.37,2013-04-27 13:49:00,
2013-04-27 09:54:00,39.0,34.6,30.46,SE,135,1.6,3.5,84,0.00,CLR,,0.00,WeatherDisplay:10.37,2013-04-27 13:54:00,
2013-04-27 09:59:00,39.0,34.6,30.46,SE,135,1.6,3.5,84,0.00,CLR,,0.00,WeatherDisplay:10.37,2013-04-27 13:59:00,
2013-04-27 10:04:00,39.0,34.6,30.46,SE,135,1.6,3.5,84,0.00,CLR,,0.00,WeatherDisplay:10.37,2013-04-27 14:04:00,
2013-04-27 10:09:00,39.0,34.6,30.46,SE,135,1.6,3.5,84,0.00,CLR,,0.00,WeatherDisplay:10.37,2013-04-27 14:09:00,
2013-04-27 10:14:00,39.0,34.6,30.46,SE,135,1.6,3.5,84,0.00,CLR,,0.00,WeatherDisplay:10.37,2013-04-27 14:14:00,
2013-04-27 10:19:00,39.0,34.6,30.46,SE,135,1.6,3.5,84,0.00,CLR,,0.00,WeatherDisplay:10.37,2013-04-27 14:19:00,
2013-04-27 10:24:00,39.0,34.6,30.46,SE,135,1.6,3.5,84,0.00,CLR,,0.00,WeatherDisplay:10.37,2013-04-27 14:24:00,
2013-04-27 10:29:00,39.0,34.6,30.46,SE,135,1.6,3.5,84,0.00,CLR,,0.00,WeatherDisplay:10.37,2013-04-27 14:29:00,
2013-04-27 10:34:00,39.0,34.6,30.46,SE,135,1.6,3.5,84,0.00,CLR,,0.00,WeatherDisplay:10.37,2013-04-27 14:34:00,
2013-04-27 10:39:00,39.0,34.6,30.46,SE,135,1.6,3.5,84,0.00,CLR,,0.00,WeatherDisplay:10.37,2013-04-27 14:39:00,
2013-04-27 10:44:00,39.0,34.6,30.46,SE,135,1.6,3.5,84,0.00,CLR,,0.00,WeatherDisplay:10.37,2013-04-27 14:44:00,
2013-04-27 10:49:00,39.0,34.6,30.46,SE,135,1.6,3.5,84,0.00,CLR,,0.00,WeatherDisplay:10.37,2013-04-27 14:49:00,
2013-04-27 10:54:00,39.0,34.6,30.46,SE,135,1.6,3.5,84,0.00,CLR,,0.00,WeatherDisplay:10.37,2013-04-27 14:54:00,
2013-04-27 10:59:00,39.0,34.6,30.46,SE,135,1.6,3.5,84,0.00,CLR,,0.00,WeatherDisplay:10.37,2013-04-27 14:59:00,
2013-04-27 11:04:00,39.0,34.6,30.46,SE,135,1.6,3.5,84,0.00,CLR,,0.00,WeatherDisplay:10.37,2013-04-27 15:04:00,
2013-04-27 11:09:00,39.0,34.6,30.46,SE,135,1.6,3.5,84,0.00,CLR,,0.00,WeatherDisplay:10.37,2013-04-27 15:09:00,
2013-04-27 11:14:00,39.0,34.6,30.46,SE,135,1.6,3.5,84,0.00,CLR,,0.00,WeatherDisplay:10.37,2013-04-27 15:14:00,
2013-04-27 11:19:00,39.0,34.6,30.46,SE,135,1.6,3.5,84,0.00,CLR,,0.00,WeatherDisplay:10.37,2013-04-27 15:19:00,
2013-04-27 11:24:00,39.0,34.6,30.46,SE,135,1.6,3.5,84,0.00,CLR,,0.00,WeatherDisplay:10.37,2013-04-27 15:24:00,
2013-04-27 11:29:00,39.0,34.6,30.46,SE,135,1.6,3.5,84,0.00,CLR,,0.00,WeatherDisplay:10.37,2013-04-27 15:29:00,
2013-04-27 11:34:00,39.0,34.6,30.46,SE,135,1.6,3.5,84,0.00,CLR,,0.00,WeatherDisplay:10.37,2013-04-27 15:34:00,
2013-04-27 11:39:00,39.0,34.6,30.46,SE,135,1.6,3.5,84,0.00,CLR,,0.00,WeatherDisplay:10.37,2013-04-27 15:39:00,
2013-04-27 11:44:00,39.0,34.6,30.46,SE,135,1.6,3.5,84,0.00,CLR,,0.00,WeatherDisplay:10.37,2013-04-27 15:44:00,
2013-04-27 11:49:00,39.0,34.6,30.46,SE,135,1.6,3.5,84,0.00,CLR,,0.00,WeatherDisplay:10.37,2013-04-27 15:49:00,
2013-04-27 11:54:00,39.0,34.6,30.46,SE,135,1.6,3.5,84,0.00,CLR,,0.00,WeatherDisplay:10.37,2013-04-27 15:54:00,
2013-04-27 11:59:00,39.0,34.6,30.46,SE,135,1.6,3.5,84,0.00,CLR,,0.00,WeatherDisplay:10.37,2013-04-27 15:59:00,
2013-04-27 12:04:00,39.0,34.6,30.46,SE,135,1.6,3.5,84,0.00,CLR,,0.00,WeatherDisplay:10.37,2013-04-27 16:04:00,
2013-04-27 12:09:00,39.0,34.6,30.46,SE,135,1.6,3.5,84,0.00,CLR,,0.00,WeatherDisplay:10.37,2013-04-27 16:09:00,
2013-04-27 12:14:00,39.0,34.6,30.46,SE,135,1.6,3.5,84,0.00,CLR,,0.00,WeatherDisplay:10.37,2013-04-27 16:14:00,
2013-04-27 12:19:00,39.0,34.6,30.46,SE,135,1.6,3.5,84,0.00,CLR,,0.00,WeatherDisplay:10.37,2013-04-27 16:19:00,
2013-04-27 12:24:00,39.0,34.6,30.46,SE,135,1.6,3.5,84,0.00,CLR,,0.00,WeatherDisplay:10.37,2013-04-27 16:24:00,
2013-04-27 12:29:00,39.0,34.6,30.46,SE,135,1.6,3.5,84,0.00,CLR,,0.00,WeatherDisplay:10.37,2013-04-27 16:29:00,
2013-04-27 12:34:00,39.0,34.6,30.46,SE,135,1.6,3.5,84,0.00,CLR,,0.00,WeatherDisplay:10.37,2013-04-27 16:34:00,
2013-04-27 12:39:00,39.0,34.6,30.46,SE,135,1.6,3.5,84,0.00,CLR,,0.00,WeatherDisplay:10.37,2013-04-27 16:39:00,
2013-04-27 12:44:00,39.0,34.6,30.46,SE,135,1.6,3.5,84,0.00,CLR,,0.00,WeatherDisplay:10.37,2013-04-27 16:44:00,
2013-04-27 12:49:00,39.0,34.6,30.46,SE,135,1.6,3.5,84,0.00,CLR,,0.00,WeatherDisplay:10.37,2013-04-27 16:49:00,
2013-04-27 12:54:00,39.0,34.6,30.46,SE,135,1.6,3.5,84,0.00,CLR,,0.00,WeatherDisplay:10.37,2013-04-27 16:54:00,
2013-04-27 12:59:00,39.0,34.6,30.46,SE,135,1.6,3.5,84,0.00,CLR,,0.00,WeatherDisplay:10.37,2013-04-27 16:59:00,
2013-04-27 13:04:00,39.0,34.6,30.46,SE,135,1.6,3.5,84,0.00,CLR,,0.00,WeatherDisplay:10.37,2013-04-27 17:04:00,
2013-04-27 13:09:00,39.0,34.6,30.46,SE,135,1.6,3.5,84,0.00,CLR,,0.00,WeatherDisplay:10.37,2013-04-27 17:09:00,
2013-04-27 13:14:00,39.0,34.6,30.46,SE,135,1.6,3.5,84,0.00,CLR,,0.00,WeatherDisplay:10.37,2013-04-27 17:14:00,
2013-04-27 13:19:00,39.0,34.6,30.46,SE,135,1.6,3.5,84,0.00,CLR,,0.00,WeatherDisplay:10.37,2013-04-27 17:19:00,
2013-04-27 13:24:00,39.0,34.6,30.46,SE,135,1.6,3.5,84,0.00,CLR,,0.00,WeatherDisplay:10.37,2013-04-27 17:24:00,
2013-04-27 13:29:00,39.0,34.6,30.46,SE,135,1.6,3.5,84,0.00,CLR,,0.00,WeatherDisplay:10.37,2013-04-27 17:29:00,
2013-04-27 13:34:00,39.0,34.6,30.46,SE,135,1.6,3.5,84,0.00,CLR,,0.00,WeatherDisplay:10.37,2013-04-27 17:34:00,
2013-04-27 13:39:00,39.0,34.6,30.46,SE,135,1.6,3.5,84,0.00,CLR,,0.00,WeatherDisplay:10.37,2013-04-27 17:39:00,
2013-04-27 13:44:00,39.0,34.6,30.46,SE,135,1.6,3.5,84,0.00,CLR,,0.00,WeatherDisplay:10.37,2013-04-27 17:44:00,
2013-04-27 13:49:00,39.0,34.6,30.46,SE,135,1.6,3.5,84,0.00,CLR,,0.00,WeatherDisplay:10.37,2013-04-27 17:49:00,
2013-04-27 13:54:00,39.0,34.6,30.46,SE,135,1.6,3.5,84,0.00,CLR,,0.00,WeatherDisplay:10.37,2013-04-27 17:54:00,
2013-04-27 13:59:00,39.0,34.6,30.46,SE,135,1.6,3.5,84,0.00,CLR,,0.00,WeatherDisplay:10.37,2013-04-27 17:59:00,
2013-04-27 14:04:00,39.0,34.6,30.46,SE,135,1.6,3.5,84,0.00,CLR,,0.00,WeatherDisplay:10.37,2013-04-27 18:04:00,
2013-04-27 14:09:00,39.0,34.6,30.46,SE,135,1.6,3.5,84,0.00,CLR,,0.00,WeatherDisplay:10.37,2013-04-27 18:09:00,
2013-04-27 14:14:00,39.0,34.6,30.46,SE,135,1.6,3.5,84,0.00,CLR,,0.00,WeatherDisplay:10.37,2013-04-27 18:14:00,
2013-04-27 14:19:00,39.0,34.6,30.46,SE,135,1.6,3.5,84,0.00,CLR,,0.00,WeatherDisplay:10.37,2013-04-27 18:19:00,
2013-04-27 14:24:00,39.0,34.6,30.46,SE,135,1.6,3.5,84,0.00,CLR,,0.00,WeatherDisplay:10.37,2013-04-27 18:24:00,
2013-04-27 14:29:00,39.0,34.6,30.46,SE,135,1.6,3.5,84,0.00,CLR,,0.00,WeatherDisplay:10.37,2013-04-27 18:29:00,
2013-04-27 14:34:00,39.0,34.6,30.46,SE,135,1.6,3.5,84,0.00,CLR,,0.00,WeatherDisplay:10.37,2013-04-27 18:34:00,
2013-04-27 14:39:00,39.0,34.6,30.46,SE,135,1.6,3.5,84,0.00,CLR,,0.00,WeatherDisplay:10.37,2013-04-27 18:39:00,
2013-04-27 14:44:00,39.0,34.6,30.46,SE,135,1.6,3.5,84,0.00,CLR,,0.00,WeatherDisplay:10.37,2013-04-27 18:44:00,
2013-04-27 14:49:00,39.0,34.6,30.46,SE,135,1.6,3.5,84,0.00,CLR,,0.00,WeatherDisplay:10.37,2013-04-27 18:49:00,
2013-04-27 14:54:00,39.0,34.6,30.46,SE,135,1.6,3.5,84,0.00,CLR,,0.00,WeatherDisplay:10.37,2013-04-27 18:54:00,
2013-04-27 14:59:00,39.0,34.6,30.46,SE,135,1.6,3.5,84,0.00,CLR,,0.00,WeatherDisplay:10.37,2013-04-27 18:59:00,
2013-04-27 15:04:00,39.0,34.6,30.46,SE,135,1.6,3.5,84,0.00,CLR,,0.00,WeatherDisplay:10.37,2013-04-27 19:04:00,
2013-04-27 15:09:00,39.0,34.6,30.46,SE,135,1.6,3.5,84,0.00,CLR,,0.00,WeatherDisplay:10.37,2013-04-27 19:09:00,
2013-04-27 15:14:00,39.0,34.6,30.46,SE,135,1.6,3.5,84,0.00,CLR,,0.00,WeatherDisplay:10.37,2013-04-27 19:14:00,
2013-04-27 15:19:00,39.0,34.6,30.46,SE,135,1.6,3.5,84,0.00,CLR,,0.00,WeatherDisplay:10.37,2013-04-27 19:19:00,
2013-04-27 15:24:00,39.0,34.6,30.46,SE,135,1.6,3.5,84,0.00,CLR,,0.00,WeatherDisplay:10.37,2013-04-27 19:24:00,
2013-04-27 15:29:00,39.0,34.6,30.46,SE,135,1.6,3.5,84,0.00,CLR,,0.00,WeatherDisplay:10.37,2013-04-27 19:29:00,
2013-04-27 15:34:00,39.0,34.6,30.46,SE,135,1.6,3.5,84,0.00,CLR,,0.00,WeatherDisplay:10.37,2013-04-27 19:34:00,
2013-04-27 15:39:00,39.0,34.6,30.46,SE,135,1.6,3.5,84,0.00,CLR,,0.00,WeatherDisplay:10.37,2013-04-27 19:39:00,
2013-04-27 15:44:00,39.0,34.6,30.46,SE,135,1.6,3.5,84,0.00,CLR,,0.00,WeatherDisplay:10.37,2013-04-27 19:44:00,
2013-04-27 15:49:00,39.0,34.6,30.46,SE,135,1.6,3.5,84,0.00,CLR,,0.00,WeatherDisplay:10.37,2013-04-27 19:49:00,
2013-04-27 15:54:00,39.0,34.6,30.46,SE,135,1.6,3.5,84,0.00,CLR,,0.00,WeatherDisplay:10.37,2013-04-27 19:54:00,
2013-04-27 15:59:00,39.0,34.6,30.46,SE,135,1.6,3.5,84,0.00,CLR,,0.00,WeatherDisplay:10.37,2013-04-27 19:59:00,
2013-04-27 16:04:00,39.0,34.6,30.46,SE,135,1.6,3.5,84,0.00,CLR,,0.00,WeatherDisplay:10.37,2013-04-27 20:04:00,
2013-04-27 16:09:00,39.0,34.6,30.46,SE,135,1.6,3.5,84,0.00,CLR,,0.00,WeatherDisplay:10.37,2013-04-27 20:09:00,
2013-04-27 16:14:00,39.0,34.6,30.46,SE,135,1.6,3.5,84,0.00,CLR,,0.00,WeatherDisplay:10.37,2013-04-27 20:14:00,
2013-04-27 16:19:00,39.0,34.6,30.46,SE,135,1.6,3.5,84,0.00,CLR,,0.00,WeatherDisplay:10.37,2013-04-27 20:19:00,
2013-04-27 16:24:00,39.0,34.6,30.46,SE,135,1.6,3.5,84,0.00,CLR,,0.00,WeatherDisplay:10.37,2013-04-27 20:24:00,
2013-04-27 16:29:00,39.0,34.6,30.46,SE,135,1.6,3.5,84,0.00,CLR,,0.00,WeatherDisplay:10.37,2013-04-27 20:29:00,
2013-04-27 16:34:00,39.0,34.6,30.46,SE,135,1.6,3.5,84,0.00,CLR,,0.00,WeatherDisplay:10.37,2013-04-27 20:34:00,
2013-04-27 16:39:00,39.0,34.6,30.46,SE,135,1.6,3.5,84,0.00,CLR,,0.00,WeatherDisplay:10.37,2013-04-27 20:39:00,
2013-04-27 16:44:00,39.0,34.6,30.46,SE,135,1.6,3.5,84,0.00,CLR,,0.00,WeatherDisplay:10.37,2013-04-27 20:44:00,
2013-04-27 16:49:00,39.0,34.6,30.46,SE,135,1.6,3.5,84,0.00,CLR,,0.00,WeatherDisplay:10.37,2013-04-27 20:49:00,
2013-04-27 16:54:00,39.0,34.6,30.46,SE,135,1.6,3.5,84,0.00,CLR,,0.00,WeatherDisplay:10.37,2013-04-27 20:54:00,
2013-04-27 16:59:00,39.0,34.6,30.46,SE,135,1.6,3.5,84,0.00,CLR,,0.00,WeatherDisplay:10.37,2013-04-27 20:59:00,
2013-04-27 17:04:00,39.0,34.6,30.46,SE,135,1.6,3.5,84,0.00,BKN,,0.00,WeatherDisplay:10.37,2013-04-27 21:04:00,
2013-04-27 17:09:00,39.0,34.6,30.46,SE,135,1.6,3.5,84,0.00,BKN,,0.00,WeatherDisplay:10.37,2013-04-27 21:09:00,
2013-04-27 17:14:00,39.0,34.6,30.46,SE,135,1.6,3.5,84,0.00,BKN,,0.00,WeatherDisplay:10.37,2013-04-27 21:14:00,
2013-04-27 17:19:00,39.0,34.6,30.46,SE,135,1.6,3.5,84,0.00,BKN,,0.00,WeatherDisplay:10.37,2013-04-27 21:19:00,
2013-04-27 17:24:00,39.0,34.6,30.46,SE,135,1.6,3.5,84,0.00,BKN,,0.00,WeatherDisplay:10.37,2013-04-27 21:24:00,
2013-04-27 17:29:00,39.0,34.6,30.46,SE,135,1.6,3.5,84,0.00,BKN,,0.00,WeatherDisplay:10.37,2013-04-27 21:29:00,
2013-04-27 17:34:00,39.0,34.6,30.46,SE,135,1.6,3.5,84,0.00,BKN,,0.00,WeatherDisplay:10.37,2013-04-27 21:34:00,
2013-04-27 17:39:00,39.0,34.6,30.46,SE,135,1.6,3.5,84,0.00,BKN,,0.00,WeatherDisplay:10.37,2013-04-27 21:39:00,
2013-04-27 17:44:00,39.0,34.6,30.46,SE,135,1.6,3.5,84,0.00,BKN,,0.00,WeatherDisplay:10.37,2013-04-27 21:44:00,
2013-04-27 17:49:00,39.0,34.6,30.46,SE,135,1.6,3.5,84,0.00,BKN,,0.00,WeatherDisplay:10.37,2013-04-27 21:49:00,
2013-04-27 17:54:00,39.0,34.6,30.46,SE,135,1.6,3.5,84,0.00,BKN,,0.00,WeatherDisplay:10.37,2013-04-27 21:54:00,
2013-04-27 17:59:00,39.0,34.6,30.46,SE,135,1.6,3.5,84,0.00,BKN,,0.00,WeatherDisplay:10.37,2013-04-27 21:59:00,
2013-04-27 18:04:00,39.0,34.6,30.46,SE,135,1.6,3.5,84,0.00,SCT,,0.00,WeatherDisplay:10.37,2013-04-27 22:04:00,
2013-04-27 18:09:00,39.0,34.6,30.46,SE,135,1.6,3.5,84,0.00,SCT,,0.00,WeatherDisplay:10.37,2013-04-27 22:09:00,
2013-04-27 18:14:00,39.0,34.6,30.46,SE,135,1.6,3.5,84,0.00,SCT,,0.00,WeatherDisplay:10.37,2013-04-27 22:14:00,
2013-04-27 18:19:00,39.0,34.6,30.46,SE,135,1.6,3.5,84,0.00,SCT,,0.00,WeatherDisplay:10.37,2013-04-27 22:19:00,
2013-04-27 18:24:00,39.0,34.6,30.46,SE,135,1.6,3.5,84,0.00,SCT,,0.00,WeatherDisplay:10.37,2013-04-27 22:24:00,
2013-04-27 18:29:00,39.0,34.6,30.46,SE,135,1.6,3.5,84,0.00,SCT,,0.00,WeatherDisplay:10.37,2013-04-27 22:29:00,
2013-04-27 18:34:00,39.0,34.6,30.46,SE,135,1.6,3.5,84,0.00,SCT,,0.00,WeatherDisplay:10.37,2013-04-27 22:34:00,
2013-04-27 18:39:00,39.0,34.6,30.46,SE,135,1.6,3.5,84,0.00,SCT,,0.00,WeatherDisplay:10.37,2013-04-27 22:39:00,
2013-04-27 18:44:00,39.0,34.6,30.46,SE,135,1.6,3.5,84,0.00,SCT,,0.00,WeatherDisplay:10.37,2013-04-27 22:44:00,
2013-04-27 18:49:00,39.0,34.6,30.46,SE,135,1.6,3.5,84,0.00,SCT,,0.00,WeatherDisplay:10.37,2013-04-27 22:49:00,
2013-04-27 18:54:00,39.0,34.6,30.46,SE,135,1.6,3.5,84,0.00,SCT,,0.00,WeatherDisplay:10.37,2013-04-27 22:54:00,
2013-04-27 18:59:00,39.0,34.6,30.46,SE,135,1.6,3.5,84,0.00,SCT,,0.00,WeatherDisplay:10.37,2013-04-27 22:59:00,
2013-04-27 19:04:00,39.0,34.6,30.46,SE,135,1.6,3.5,84,0.00,SCT,,0.00,WeatherDisplay:10.37,2013-04-27 23:04:00,
2013-04-27 19:09:00,39.0,34.6,30.46,SE,135,1.6,3.5,84,0.00,SCT,,0.00,WeatherDisplay:10.37,2013-04-27 23:09:00,
2013-04-27 19:14:00,39.0,34.6,30.46,SE,135,1.6,3.5,84,0.00,SCT,,0.00,WeatherDisplay:10.37,2013-04-27 23:14:00,
2013-04-27 19:19:00,39.0,34.6,30.46,SE,135,1.6,3.5,84,0.00,SCT,,0.00,WeatherDisplay:10.37,2013-04-27 23:19:00,
2013-04-27 19:24:00,39.0,34.6,30.46,SE,135,1.6,3.5,84,0.00,SCT,,0.00,WeatherDisplay:10.37,2013-04-27 23:24:00,
2013-04-27 19:29:00,39.0,34.6,30.46,SE,135,1.6,3.5,84,0.00,SCT,,0.00,WeatherDisplay:10.37,2013-04-27 23:29:00,
2013-04-27 19:34:00,39.0,34.6,30.46,SE,135,1.6,3.5,84,0.00,SCT,,0.00,WeatherDisplay:10.37,2013-04-27 23:34:00,
2013-04-27 19:39:00,39.0,34.6,30.46,SE,135,1.6,3.5,84,0.00,SCT,,0.00,WeatherDisplay:10.37,2013-04-27 23:39:00,
2013-04-27 19:44:00,39.0,34.6,30.46,SE,135,1.6,3.5,84,0.00,SCT,,0.00,WeatherDisplay:10.37,2013-04-27 23:44:00,
2013-04-27 19:49:00,39.0,34.6,30.46,SE,135,1.6,3.5,84,0.00,SCT,,0.00,WeatherDisplay:10.37,2013-04-27 23:49:00,
2013-04-27 19:54:00,39.0,34.6,30.46,SE,135,1.6,3.5,84,0.00,SCT,,0.00,WeatherDisplay:10.37,2013-04-27 23:54:00,
2013-04-27 19:59:00,39.0,34.6,30.46,SE,135,1.6,3.5,84,0.00,SCT,,0.00,WeatherDisplay:10.37,2013-04-27 23:59:00,
2013-04-27 20:04:00,39.0,34.6,30.46,SE,135,1.6,3.5,84,0.00,CLR,,0.00,WeatherDisplay:10.37,2013-04-28 00:04:00,
2013-04-27 20:09:00,39.0,34.6,30.46,SE,135,1.6,3.5,84,0.00,CLR,,0.00,WeatherDisplay:10.37,2013-04-28 00:09:00,
2013-04-27 20:14:00,39.0,34.6,30.46,SE,135,1.6,3.5,84,0.00,CLR,,0.00,WeatherDisplay:10.37,2013-04-28 00:14:00,
2013-04-27 20:19:00,39.0,34.6,30.46,SE,135,1.6,3.5,84,0.00,CLR,,0.00,WeatherDisplay:10.37,2013-04-28 00:19:00,
2013-04-27 20:24:00,39.0,34.6,30.46,SE,135,1.6,3.5,84,0.00,CLR,,0.00,WeatherDisplay:10.37,2013-04-28 00:24:00,
2013-04-27 20:29:00,39.0,34.6,30.46,SE,135,1.6,3.5,84,0.00,CLR,,0.00,WeatherDisplay:10.37,2013-04-28 00:29:00,
2013-04-27 20:34:00,39.0,34.6,30.46,SE,135,1.6,3.5,84,0.00,CLR,,0.00,WeatherDisplay:10.37,2013-04-28 00:34:00,
2013-04-27 20:39:00,39.0,34.6,30.46,SE,135,1.6,3.5,84,0.00,CLR,,0.00,WeatherDisplay:10.37,2013-04-28 00:39:00,
2013-04-27 20:44:00,39.0,34.6,30.46,SE,135,1.6,3.5,84,0.00,CLR,,0.00,WeatherDisplay:10.37,2013-04-28 00:44:00,
2013-04-27 20:49:00,39.0,34.6,30.46,SE,135,1.6,3.5,84,0.00,CLR,,0.00,WeatherDisplay:10.37,2013-04-28 00:49:00,
2013-04-27 20:54:00,39.0,34.6,30.46,SE,135,1.6,3.5,84,0.00,CLR,,0.00,WeatherDisplay:10.37,2013-04-28 00:54:00,
2013-04-27 20:59:00,39.0,34.6,30.46,SE,135,1.6,3.5,84,0.00,CLR,,0.00,WeatherDisplay:10.37,2013-04-28 00:59:00,
2013-04-27 21:04:00,39.0,34.6,30.46,SE,135,1.6,3.5,84,0.00,CLR,,0.00,WeatherDisplay:10.37,2013-04-28 01:04:00,
2013-04-27 21:09:00,39.0,34.6,30.46,SE,135,1.6,3.5,84,0.00,CLR,,0.00,WeatherDisplay:10.37,2013-04-28 01:09:00,
2013-04-27 21:14:00,39.0,34.6,30.46,SE,135,1.6,3.5,84,0.00,CLR,,0.00,WeatherDisplay:10.37,2013-04-28 01:14:00,
2013-04-27 21:19:00,39.0,34.6,30.46,SE,135,1.6,3.5,84,0.00,CLR,,0.00,WeatherDisplay:10.37,2013-04-28 01:19:00,
2013-04-27 21:24:00,39.0,34.6,30.46,SE,135,1.6,3.5,84,0.00,CLR,,0.00,WeatherDisplay:10.37,2013-04-28 01:24:00,
2013-04-27 21:29:00,39.0,34.6,30.46,SE,135,1.6,3.5,84,0.00,CLR,,0.00,WeatherDisplay:10.37,2013-04-28 01:29:00,
2013-04-27 21:34:00,39.0,34.6,30.46,SE,135,1.6,3.5,84,0.00,CLR,,0.00,WeatherDisplay:10.37,2013-04-28 01:34:00,
2013-04-27 21:39:00,39.0,34.6,30.46,SE,135,1.6,3.5,84,0.00,CLR,,0.00,WeatherDisplay:10.37,2013-04-28 01:39:00,
2013-04-27 21:44:00,39.0,34.6,30.46,SE,135,1.6,3.5,84,0.00,CLR,,0.00,WeatherDisplay:10.37,2013-04-28 01:44:00,
2013-04-27 21:49:00,39.0,34.6,30.46,SE,135,1.6,3.5,84,0.00,CLR,,0.00,WeatherDisplay:10.37,2013-04-28 01:49:00,
2013-04-27 21:54:00,39.0,34.6,30.46,SE,135,1.6,3.5,84,0.00,CLR,,0.00,WeatherDisplay:10.37,2013-04-28 01:54:00,
2013-04-27 21:59:00,39.0,34.6,30.46,SE,135,1.6,3.5,84,0.00,CLR,,0.00,WeatherDisplay:10.37,2013-04-28 01:59:00,
2013-04-27 22:04:00,39.0,34.6,30.46,SE,135,1.6,3.5,84,0.00,CLR,,0.00,WeatherDisplay:10.37,2013-04-28 02:04:00,
2013-04-27 22:09:00,39.0,34.6,30.46,SE,135,1.6,3.5,84,0.00,CLR,,0.00,WeatherDisplay:10.37,2013-04-28 02:09:00,
2013-04-27 22:14:00,39.0,34.6,30.46,SE,135,1.6,3.5,84,0.00,CLR,,0.00,WeatherDisplay:10.37,2013-04-28 02:14:00,
2013-04-27 22:19:00,39.0,34.6,30.46,SE,135,1.6,3.5,84,0.00,CLR,,0.00,WeatherDisplay:10.37,2013-04-28 02:19:00,
2013-04-27 22:24:00,39.0,34.6,30.46,SE,135,1.6,3.5,84,0.00,CLR,,0.00,WeatherDisplay:10.37,2013-04-28 02:24:00,
2013-04-27 22:29:00,39.0,34.6,30.46,SE,135,1.6,3.5,84,0.00,CLR,,0.00,WeatherDisplay:10.37,2013-04-28 02:29:00,
2013-04-27 22:34:00,39.0,34.6,30.46,SE,135,1.6,3.5,84,0.00,CLR,,0.00,WeatherDisplay:10.37,2013-04-28 02:34:00,
2013-04-27 22:39:00,39.0,34.6,30.46,SE,135,1.6,3.5,84,0.00,CLR,,0.00,WeatherDisplay:10.37,2013-04-28 02:39:00,
2013-04-27 22:44:00,39.0,34.6,30.46,SE,135,1.6,3.5,84,0.00,CLR,,0.00,WeatherDisplay:10.37,2013-04-28 02:44:00,
2013-04-27 22:49:00,39.0,34.6,30.46,SE,135,1.6,3.5,84,0.00,CLR,,0.00,WeatherDisplay:10.37,2013-04-28 02:49:00,
2013-04-27 22:54:00,39.0,34.6,30.46,SE,135,1.6,3.5,84,0.00,CLR,,0.00,WeatherDisplay:10.37,2013-04-28 02:54:00,
2013-04-27 22:59:00,39.0,34.6,30.46,SE,135,1.6,3.5,84,0.00,CLR,,0.00,WeatherDisplay:10.37,2013-04-28 02:59:00,
2013-04-27 23:04:00,39.0,34.6,30.46,SE,135,1.6,3.5,84,0.00,CLR,,0.00,WeatherDisplay:10.37,2013-04-28 03:04:00,
2013-04-27 23:09:00,39.0,34.6,30.46,SE,135,1.6,3.5,84,0.00,CLR,,0.00,WeatherDisplay:10.37,2013-04-28 03:09:00,
2013-04-27 23:14:00,39.0,34.6,30.46,SE,135,1.6,3.5,84,0.00,CLR,,0.00,WeatherDisplay:10.37,2013-04-28 03:14:00,
2013-04-27 23:19:00,39.0,34.6,30.46,SE,135,1.6,3.5,84,0.00,CLR,,0.00,WeatherDisplay:10.37,2013-04-28 03:19:00,
2013-04-27 23:24:00,39.0,34.6,30.46,SE,135,1.6,3.5,84,0.00,CLR,,0.00,WeatherDisplay:10.37,2013-04-28 03:24:00,
2013-04-27 23:29:00,39.0,34.6,30.46,SE,135,1.6,3.5,84,0.00,CLR,,0.00,WeatherDisplay:10.37,2013-04-28 03:29:00,
2013-04-27 23:34:00,39.0,34.6,30.46,SE,135,1.6,3.5,84,0.00,CLR,,0.00,WeatherDisplay:10.37,2013-04-28 03:34:00,
2013-04-27 23:39:00,39.0,34.6,30.46,SE,135,1.6,3.5,84,0.00,CLR,,0.00,WeatherDisplay:10.37,2013-04-28 03:39:00,
2013-04-27 23:44:00,39.0,34.6,30.46,SE,135,1.6,3.5,84,0.00,CLR,,0.00,WeatherDisplay:10.37,2013-04-28 03:44:00,
2013-04-27 23:49:00,39.0,34.6,30.46,SE,135,1.6,3.5,84,0.00,CLR,,0.00,WeatherDisplay:10.37,2013-04-28 03:49:00,
2013-04-27 23:54:00,39.0,34.6,30.46,SE,135,1.6,3.5,84,0.00,CLR,,0.00,WeatherDisplay:10.37,2013-04-28 03:54:00,
2013-04-27 23:59:00,39.0,34.6,30.46,SE,135,1.6,3.5,84,0.00,CLR,,0.00,WeatherDisplay:10.37,2013-04-28 03:59:00,